sensor_id;sensor_type;location;lat;lon;timestamp;pressure;altitude;pressure_sealevel;temperature;humidity
45864;BME280;31579;52.354;16.974;2022-07-29T00:00:30;91.2;;;-146.1;100.0
45864;BME280;31579;52.354;16.974;2022-07-29T00:01:34;91.4;;;-146.1;100.0
45864;BME280;31579;52.354;16.974;2022-07-29T00:02:38;90.9;;;-146.1;100.0
45864;BME280;31579;52.354;16.974;2022-07-29T00:03:42;79.5;;;-146.1;100.0
45864;BME280;31579;52.354;16.974;2022-07-29T00:04:46;61.3;;;-146.1;100.0
45864;BME280;31579;52.354;16.974;2022-07-29T00:05:50;50.1;;;-146.1;100.0
45864;BME280;31579;52.354;16.974;2022-07-29T00:06:54;34.9;;;-146.1;100.0
45864;BME280;31579;52.354;16.974;2022-07-29T00:07:58;25.5;;;-146.1;100.0
45864;BME280;31579;52.354;16.974;2022-07-29T00:09:00;-4.4;;;-146.1;100.0
45864;BME280;31579;52.354;16.974;2022-07-29T00:10:03;0.8;;;-146.1;100.0
45864;BME280;31579;52.354;16.974;2022-07-29T00:11:05;-17.9;;;-146.1;100.0
45864;BME280;31579;52.354;16.974;2022-07-29T00:12:07;-26.3;;;-146.1;100.0
45864;BME280;31579;52.354;16.974;2022-07-29T00:13:11;-9.8;;;-146.1;100.0
45864;BME280;31579;52.354;16.974;2022-07-29T00:14:15;-16.3;;;-146.1;100.0
45864;BME280;31579;52.354;16.974;2022-07-29T00:15:19;-17.4;;;-146.1;100.0
45864;BME280;31579;52.354;16.974;2022-07-29T00:16:23;-18.5;;;-146.1;100.0
45864;BME280;31579;52.354;16.974;2022-07-29T00:17:27;-14.0;;;-146.1;100.0
45864;BME280;31579;52.354;16.974;2022-07-29T00:18:31;-19.7;;;-146.1;100.0
45864;BME280;31579;52.354;16.974;2022-07-29T00:19:35;-21.4;;;-146.1;100.0
45864;BME280;31579;52.354;16.974;2022-07-29T00:20:39;-15.6;;;-146.1;100.0
45864;BME280;31579;52.354;16.974;2022-07-29T00:21:43;-14.8;;;-146.1;100.0
45864;BME280;31579;52.354;16.974;2022-07-29T00:22:47;-21.7;;;-146.1;100.0
45864;BME280;31579;52.354;16.974;2022-07-29T00:23:51;-25.1;;;-146.1;100.0
45864;BME280;31579;52.354;16.974;2022-07-29T00:24:55;-22.8;;;-146.1;100.0
45864;BME280;31579;52.354;16.974;2022-07-29T00:25:59;-20.6;;;-146.1;100.0
45864;BME280;31579;52.354;16.974;2022-07-29T00:27:03;-18.1;;;-146.1;100.0
45864;BME280;31579;52.354;16.974;2022-07-29T00:28:07;-21.0;;;-146.1;100.0
45864;BME280;31579;52.354;16.974;2022-07-29T00:29:11;-27.2;;;-146.1;100.0
45864;BME280;31579;52.354;16.974;2022-07-29T00:30:15;-32.2;;;-146.1;100.0
45864;BME280;31579;52.354;16.974;2022-07-29T00:31:19;-38.5;;;-146.1;100.0
45864;BME280;31579;52.354;16.974;2022-07-29T00:32:23;-43.5;;;-146.1;100.0
45864;BME280;31579;52.354;16.974;2022-07-29T00:33:28;-48.8;;;-146.1;100.0
45864;BME280;31579;52.354;16.974;2022-07-29T00:34:31;-53.0;;;-146.1;100.0
45864;BME280;31579;52.354;16.974;2022-07-29T00:35:35;-57.0;;;-146.1;100.0
45864;BME280;31579;52.354;16.974;2022-07-29T00:36:39;-58.3;;;-146.1;100.0
45864;BME280;31579;52.354;16.974;2022-07-29T00:37:43;-59.1;;;-146.1;100.0
45864;BME280;31579;52.354;16.974;2022-07-29T00:38:48;-58.3;;;-146.1;100.0
45864;BME280;31579;52.354;16.974;2022-07-29T00:39:51;-59.9;;;-146.1;100.0
45864;BME280;31579;52.354;16.974;2022-07-29T00:40:55;-57.7;;;-146.1;100.0
45864;BME280;31579;52.354;16.974;2022-07-29T00:42:02;-52.9;;;-146.1;100.0
45864;BME280;31579;52.354;16.974;2022-07-29T00:43:03;-53.7;;;-146.1;100.0
45864;BME280;31579;52.354;16.974;2022-07-29T00:44:05;-70.7;;;-146.1;100.0
45864;BME280;31579;52.354;16.974;2022-07-29T00:45:07;-75.5;;;-146.1;100.0
45864;BME280;31579;52.354;16.974;2022-07-29T00:46:11;-66.3;;;-146.1;100.0
45864;BME280;31579;52.354;16.974;2022-07-29T00:47:15;-72.2;;;-146.1;100.0
45864;BME280;31579;52.354;16.974;2022-07-29T00:48:27;-68.2;;;-146.1;100.0
45864;BME280;31579;52.354;16.974;2022-07-29T00:49:32;-78.9;;;-146.1;100.0
45864;BME280;31579;52.354;16.974;2022-07-29T00:50:36;-82.4;;;-146.1;100.0
45864;BME280;31579;52.354;16.974;2022-07-29T00:51:41;-82.9;;;-146.1;100.0
45864;BME280;31579;52.354;16.974;2022-07-29T00:52:45;-84.4;;;-146.1;100.0
45864;BME280;31579;52.354;16.974;2022-07-29T00:53:49;-84.5;;;-146.1;100.0
45864;BME280;31579;52.354;16.974;2022-07-29T00:54:53;-85.5;;;-146.1;100.0
45864;BME280;31579;52.354;16.974;2022-07-29T00:55:58;-82.9;;;-146.1;100.0
45864;BME280;31579;52.354;16.974;2022-07-29T00:57:01;-81.4;;;-146.1;100.0
45864;BME280;31579;52.354;16.974;2022-07-29T00:58:05;-82.7;;;-146.1;100.0
45864;BME280;31579;52.354;16.974;2022-07-29T00:59:09;-82.7;;;-146.1;100.0
45864;BME280;31579;52.354;16.974;2022-07-29T01:00:15;-84.2;;;-146.1;100.0
45864;BME280;31579;52.354;16.974;2022-07-29T01:01:17;-85.3;;;-146.1;100.0
45864;BME280;31579;52.354;16.974;2022-07-29T01:02:22;-81.0;;;-146.1;100.0
45864;BME280;31579;52.354;16.974;2022-07-29T01:03:26;-85.2;;;-146.1;100.0
45864;BME280;31579;52.354;16.974;2022-07-29T01:04:30;-85.3;;;-146.1;100.0
45864;BME280;31579;52.354;16.974;2022-07-29T01:05:34;-88.5;;;-146.1;100.0
45864;BME280;31579;52.354;16.974;2022-07-29T01:06:38;-89.3;;;-146.1;100.0
45864;BME280;31579;52.354;16.974;2022-07-29T01:07:42;-92.0;;;-146.1;100.0
45864;BME280;31579;52.354;16.974;2022-07-29T01:08:46;-94.5;;;-146.1;100.0
45864;BME280;31579;52.354;16.974;2022-07-29T01:09:50;-96.7;;;-146.1;100.0
45864;BME280;31579;52.354;16.974;2022-07-29T01:10:54;-99.6;;;-146.1;100.0
45864;BME280;31579;52.354;16.974;2022-07-29T01:11:58;-100.7;;;-146.1;100.0
45864;BME280;31579;52.354;16.974;2022-07-29T01:13:00;-109.2;;;-146.1;100.0
45864;BME280;31579;52.354;16.974;2022-07-29T01:14:03;-106.5;;;-146.1;100.0
45864;BME280;31579;52.354;16.974;2022-07-29T01:15:07;-105.5;;;-146.1;100.0
45864;BME280;31579;52.354;16.974;2022-07-29T01:18:23;-110.1;;;-146.1;100.0
45864;BME280;31579;52.354;16.974;2022-07-29T01:24:54;-103.1;;;-146.1;100.0
45864;BME280;31579;52.354;16.974;2022-07-29T01:26:57;-104.4;;;-146.1;100.0
45864;BME280;31579;52.354;16.974;2022-07-29T01:30:06;-102.5;;;-146.1;100.0
45864;BME280;31579;52.354;16.974;2022-07-29T01:31:09;-100.6;;;-146.1;100.0
45864;BME280;31579;52.354;16.974;2022-07-29T01:32:15;-99.9;;;-146.1;100.0
45864;BME280;31579;52.354;16.974;2022-07-29T01:33:18;-101.2;;;-146.1;100.0
45864;BME280;31579;52.354;16.974;2022-07-29T01:34:27;-104.4;;;-146.1;100.0
45864;BME280;31579;52.354;16.974;2022-07-29T01:35:31;-105.1;;;-146.1;100.0
45864;BME280;31579;52.354;16.974;2022-07-29T01:38:41;-112.7;;;-146.1;100.0
45864;BME280;31579;52.354;16.974;2022-07-29T01:39:43;-116.9;;;-146.1;100.0
45864;BME280;31579;52.354;16.974;2022-07-29T01:40:49;-116.1;;;-146.1;100.0
45864;BME280;31579;52.354;16.974;2022-07-29T01:42:56;-117.6;;;-146.1;100.0
45864;BME280;31579;52.354;16.974;2022-07-29T01:44:01;-118.9;;;-146.1;100.0
45864;BME280;31579;52.354;16.974;2022-07-29T01:46:09;-120.1;;;-146.1;100.0
45864;BME280;31579;52.354;16.974;2022-07-29T01:47:12;-119.5;;;-146.1;100.0
45864;BME280;31579;52.354;16.974;2022-07-29T01:49:21;-127.4;;;-146.1;100.0
45864;BME280;31579;52.354;16.974;2022-07-29T01:50:26;-130.9;;;-146.1;100.0
45864;BME280;31579;52.354;16.974;2022-07-29T01:51:50;-133.0;;;-146.1;100.0
45864;BME280;31579;52.354;16.974;2022-07-29T01:52:36;-132.5;;;-146.1;100.0
45864;BME280;31579;52.354;16.974;2022-07-29T01:53:37;-132.2;;;-146.1;100.0
45864;BME280;31579;52.354;16.974;2022-07-29T01:54:41;-133.5;;;-146.1;100.0
45864;BME280;31579;52.354;16.974;2022-07-29T01:55:44;-131.4;;;-146.1;100.0
45864;BME280;31579;52.354;16.974;2022-07-29T01:56:48;-130.1;;;-146.1;100.0
45864;BME280;31579;52.354;16.974;2022-07-29T01:57:51;-130.3;;;-146.1;100.0
45864;BME280;31579;52.354;16.974;2022-07-29T01:58:55;-132.3;;;-146.1;100.0
45864;BME280;31579;52.354;16.974;2022-07-29T01:59:59;-131.5;;;-146.1;100.0
45864;BME280;31579;52.354;16.974;2022-07-29T02:01:03;-132.2;;;-146.1;100.0
45864;BME280;31579;52.354;16.974;2022-07-29T02:02:08;-131.7;;;-146.1;100.0
45864;BME280;31579;52.354;16.974;2022-07-29T02:03:11;-131.0;;;-146.1;100.0
45864;BME280;31579;52.354;16.974;2022-07-29T02:04:16;-130.7;;;-146.1;100.0
45864;BME280;31579;52.354;16.974;2022-07-29T02:05:20;-130.0;;;-146.1;100.0
45864;BME280;31579;52.354;16.974;2022-07-29T02:06:22;-133.4;;;-146.1;100.0
45864;BME280;31579;52.354;16.974;2022-07-29T02:07:27;-130.9;;;-146.1;100.0
45864;BME280;31579;52.354;16.974;2022-07-29T02:08:30;-133.8;;;-146.1;100.0
45864;BME280;31579;52.354;16.974;2022-07-29T02:09:35;-134.2;;;-146.1;100.0
45864;BME280;31579;52.354;16.974;2022-07-29T02:10:38;-135.5;;;-146.1;100.0
45864;BME280;31579;52.354;16.974;2022-07-29T02:11:44;-136.4;;;-146.1;100.0
45864;BME280;31579;52.354;16.974;2022-07-29T02:12:46;-137.4;;;-146.1;100.0
45864;BME280;31579;52.354;16.974;2022-07-29T02:13:52;-138.9;;;-146.1;100.0
45864;BME280;31579;52.354;16.974;2022-07-29T02:14:54;-141.7;;;-146.1;100.0
45864;BME280;31579;52.354;16.974;2022-07-29T02:15:58;-144.4;;;-146.1;100.0
45864;BME280;31579;52.354;16.974;2022-07-29T02:17:09;-145.4;;;-146.1;100.0
45864;BME280;31579;52.354;16.974;2022-07-29T02:18:14;-147.5;;;-146.1;100.0
45864;BME280;31579;52.354;16.974;2022-07-29T02:19:17;-147.4;;;-146.1;100.0
45864;BME280;31579;52.354;16.974;2022-07-29T02:20:34;-148.6;;;-146.1;100.0
45864;BME280;31579;52.354;16.974;2022-07-29T02:21:38;-146.5;;;-146.1;100.0
45864;BME280;31579;52.354;16.974;2022-07-29T02:22:43;-144.9;;;-146.1;100.0
45864;BME280;31579;52.354;16.974;2022-07-29T02:23:47;-143.6;;;-146.1;100.0
45864;BME280;31579;52.354;16.974;2022-07-29T02:24:51;-141.6;;;-146.1;100.0
45864;BME280;31579;52.354;16.974;2022-07-29T02:25:56;-139.8;;;-146.1;100.0
45864;BME280;31579;52.354;16.974;2022-07-29T02:26:59;-139.1;;;-146.1;100.0
45864;BME280;31579;52.354;16.974;2022-07-29T02:28:04;-137.2;;;-146.1;100.0
45864;BME280;31579;52.354;16.974;2022-07-29T02:29:08;-137.0;;;-146.1;100.0
45864;BME280;31579;52.354;16.974;2022-07-29T02:30:12;-135.9;;;-146.1;100.0
45864;BME280;31579;52.354;16.974;2022-07-29T02:31:16;-137.1;;;-146.1;100.0
45864;BME280;31579;52.354;16.974;2022-07-29T02:32:19;-135.8;;;-146.1;100.0
45864;BME280;31579;52.354;16.974;2022-07-29T02:33:23;-133.4;;;-146.1;100.0
45864;BME280;31579;52.354;16.974;2022-07-29T02:34:28;-133.6;;;-146.1;100.0
45864;BME280;31579;52.354;16.974;2022-07-29T02:35:30;-59.0;;;-146.1;100.0
45864;BME280;31579;52.354;16.974;2022-07-29T02:36:34;-122.4;;;-146.1;100.0
45864;BME280;31579;52.354;16.974;2022-07-29T02:37:38;-120.7;;;-146.1;100.0
45864;BME280;31579;52.354;16.974;2022-07-29T02:38:42;-117.1;;;-146.1;100.0
45864;BME280;31579;52.354;16.974;2022-07-29T02:39:46;-114.6;;;-146.1;100.0
45864;BME280;31579;52.354;16.974;2022-07-29T02:40:50;-112.2;;;-146.1;100.0
45864;BME280;31579;52.354;16.974;2022-07-29T02:41:55;-110.0;;;-146.1;100.0
45864;BME280;31579;52.354;16.974;2022-07-29T02:42:58;-107.3;;;-146.1;100.0
45864;BME280;31579;52.354;16.974;2022-07-29T02:44:03;2.5;;;-146.1;100.0
45864;BME280;31579;52.354;16.974;2022-07-29T02:45:04;-52.2;;;-146.1;100.0
45864;BME280;31579;52.354;16.974;2022-07-29T02:46:09;-93.4;;;-146.1;100.0
45864;BME280;31579;52.354;16.974;2022-07-29T02:48:15;-86.8;;;-146.1;100.0
45864;BME280;31579;52.354;16.974;2022-07-29T02:50:28;-79.2;;;-146.1;100.0
45864;BME280;31579;52.354;16.974;2022-07-29T02:51:28;-68.3;;;-146.1;100.0
45864;BME280;31579;52.354;16.974;2022-07-29T02:52:31;66.5;;;-146.1;100.0
45864;BME280;31579;52.354;16.974;2022-07-29T02:53:40;-65.0;;;-146.1;100.0
45864;BME280;31579;52.354;16.974;2022-07-29T02:54:47;-50.0;;;-146.1;100.0
45864;BME280;31579;52.354;16.974;2022-07-29T02:55:55;-41.4;;;-146.1;100.0
45864;BME280;31579;52.354;16.974;2022-07-29T02:56:53;-31.4;;;-146.1;100.0
45864;BME280;31579;52.354;16.974;2022-07-29T02:58:02;-19.5;;;-146.1;100.0
45864;BME280;31579;52.354;16.974;2022-07-29T02:59:03;-6.8;;;-146.1;100.0
45864;BME280;31579;52.354;16.974;2022-07-29T03:00:07;2.7;;;-146.1;100.0
45864;BME280;31579;52.354;16.974;2022-07-29T03:01:14;13.6;;;-146.1;100.0
45864;BME280;31579;52.354;16.974;2022-07-29T03:02:13;19.7;;;-146.1;100.0
45864;BME280;31579;52.354;16.974;2022-07-29T03:03:18;27.9;;;-146.1;100.0
45864;BME280;31579;52.354;16.974;2022-07-29T03:04:23;37.3;;;-146.1;100.0
45864;BME280;31579;52.354;16.974;2022-07-29T03:05:27;54.5;;;-146.1;100.0
45864;BME280;31579;52.354;16.974;2022-07-29T03:06:31;56.8;;;-146.1;100.0
45864;BME280;31579;52.354;16.974;2022-07-29T03:07:35;56.3;;;-146.1;100.0
45864;BME280;31579;52.354;16.974;2022-07-29T03:08:37;252.2;;;-146.1;100.0
45864;BME280;31579;52.354;16.974;2022-07-29T03:09:42;76.7;;;-146.1;100.0
45864;BME280;31579;52.354;16.974;2022-07-29T03:10:46;79.4;;;-146.1;100.0
45864;BME280;31579;52.354;16.974;2022-07-29T03:11:50;80.3;;;-146.1;100.0
45864;BME280;31579;52.354;16.974;2022-07-29T03:12:55;87.0;;;-146.1;100.0
45864;BME280;31579;52.354;16.974;2022-07-29T03:13:58;97.5;;;-146.1;100.0
45864;BME280;31579;52.354;16.974;2022-07-29T03:15:00;278.7;;;-146.1;100.0
45864;BME280;31579;52.354;16.974;2022-07-29T03:16:04;210.2;;;-146.1;100.0
45864;BME280;31579;52.354;16.974;2022-07-29T03:17:08;110.0;;;-146.1;100.0
45864;BME280;31579;52.354;16.974;2022-07-29T03:18:11;104.5;;;-146.1;100.0
45864;BME280;31579;52.354;16.974;2022-07-29T03:19:16;117.9;;;-146.1;100.0
45864;BME280;31579;52.354;16.974;2022-07-29T03:20:19;130.9;;;-146.1;100.0
45864;BME280;31579;52.354;16.974;2022-07-29T03:21:23;136.6;;;-146.1;100.0
45864;BME280;31579;52.354;16.974;2022-07-29T03:22:27;147.5;;;-146.1;100.0
45864;BME280;31579;52.354;16.974;2022-07-29T03:23:31;158.4;;;-146.1;100.0
45864;BME280;31579;52.354;16.974;2022-07-29T03:24:36;162.4;;;-146.1;100.0
45864;BME280;31579;52.354;16.974;2022-07-29T03:25:37;330.5;;;-146.1;100.0
45864;BME280;31579;52.354;16.974;2022-07-29T03:26:42;197.5;;;-146.1;100.0
45864;BME280;31579;52.354;16.974;2022-07-29T03:27:47;195.2;;;-146.1;100.0
45864;BME280;31579;52.354;16.974;2022-07-29T03:28:50;200.6;;;-146.1;100.0
45864;BME280;31579;52.354;16.974;2022-07-29T03:29:54;213.5;;;-146.1;100.0
45864;BME280;31579;52.354;16.974;2022-07-29T03:30:58;220.1;;;-146.1;100.0
45864;BME280;31579;52.354;16.974;2022-07-29T03:32:04;206.9;;;-146.1;100.0
45864;BME280;31579;52.354;16.974;2022-07-29T03:33:07;221.5;;;-146.1;100.0
45864;BME280;31579;52.354;16.974;2022-07-29T03:34:12;236.4;;;-146.1;100.0
45864;BME280;31579;52.354;16.974;2022-07-29T03:35:16;239.2;;;-146.1;100.0
45864;BME280;31579;52.354;16.974;2022-07-29T03:36:20;234.1;;;-146.1;100.0
45864;BME280;31579;52.354;16.974;2022-07-29T03:37:25;224.1;;;-146.1;100.0
45864;BME280;31579;52.354;16.974;2022-07-29T03:38:29;231.4;;;-146.1;100.0
45864;BME280;31579;52.354;16.974;2022-07-29T03:39:35;233.6;;;-146.1;100.0
45864;BME280;31579;52.354;16.974;2022-07-29T03:41:41;237.3;;;-146.1;100.0
45864;BME280;31579;52.354;16.974;2022-07-29T03:42:45;260.0;;;-146.1;100.0
45864;BME280;31579;52.354;16.974;2022-07-29T03:43:49;274.6;;;-146.1;100.0
45864;BME280;31579;52.354;16.974;2022-07-29T03:44:54;267.3;;;-146.1;100.0
45864;BME280;31579;52.354;16.974;2022-07-29T03:45:57;268.0;;;-146.1;100.0
45864;BME280;31579;52.354;16.974;2022-07-29T03:47:02;276.2;;;-146.1;100.0
45864;BME280;31579;52.354;16.974;2022-07-29T03:48:07;270.5;;;-146.1;100.0
45864;BME280;31579;52.354;16.974;2022-07-29T03:49:09;277.9;;;-146.1;100.0
45864;BME280;31579;52.354;16.974;2022-07-29T03:50:14;281.9;;;-146.1;100.0
45864;BME280;31579;52.354;16.974;2022-07-29T03:51:17;282.9;;;-146.1;100.0
45864;BME280;31579;52.354;16.974;2022-07-29T03:52:21;294.7;;;-146.1;100.0
45864;BME280;31579;52.354;16.974;2022-07-29T03:53:25;291.1;;;-146.1;100.0
45864;BME280;31579;52.354;16.974;2022-07-29T03:54:29;300.1;;;-146.1;100.0
45864;BME280;31579;52.354;16.974;2022-07-29T03:55:36;302.3;;;-146.1;100.0
45864;BME280;31579;52.354;16.974;2022-07-29T03:56:39;312.6;;;-146.1;100.0
45864;BME280;31579;52.354;16.974;2022-07-29T03:57:42;310.5;;;-146.1;100.0
45864;BME280;31579;52.354;16.974;2022-07-29T03:58:45;316.7;;;-146.1;100.0
45864;BME280;31579;52.354;16.974;2022-07-29T03:59:50;324.1;;;-146.1;100.0
45864;BME280;31579;52.354;16.974;2022-07-29T04:00:54;333.0;;;-146.1;100.0
45864;BME280;31579;52.354;16.974;2022-07-29T04:01:57;340.2;;;-146.1;100.0
45864;BME280;31579;52.354;16.974;2022-07-29T04:03:02;346.6;;;-146.1;100.0
45864;BME280;31579;52.354;16.974;2022-07-29T04:03:49;395.0;;;-146.1;100.0
45864;BME280;31579;52.354;16.974;2022-07-29T04:04:54;356.9;;;-146.1;100.0
45864;BME280;31579;52.354;16.974;2022-07-29T04:05:59;358.5;;;-146.1;100.0
45864;BME280;31579;52.354;16.974;2022-07-29T04:07:00;405.6;;;-146.1;100.0
45864;BME280;31579;52.354;16.974;2022-07-29T04:08:05;368.7;;;-146.1;100.0
45864;BME280;31579;52.354;16.974;2022-07-29T04:09:09;369.8;;;-146.1;100.0
45864;BME280;31579;52.354;16.974;2022-07-29T04:10:13;370.8;;;-146.1;100.0
45864;BME280;31579;52.354;16.974;2022-07-29T04:11:17;374.3;;;-146.1;100.0
45864;BME280;31579;52.354;16.974;2022-07-29T04:12:21;374.3;;;-146.1;100.0
45864;BME280;31579;52.354;16.974;2022-07-29T04:13:25;372.4;;;-146.1;100.0
45864;BME280;31579;52.354;16.974;2022-07-29T04:14:30;373.3;;;-146.1;100.0
45864;BME280;31579;52.354;16.974;2022-07-29T04:15:33;378.3;;;-146.1;100.0
45864;BME280;31579;52.354;16.974;2022-07-29T04:16:38;379.6;;;-146.1;100.0
45864;BME280;31579;52.354;16.974;2022-07-29T04:17:42;379.7;;;-146.1;100.0
45864;BME280;31579;52.354;16.974;2022-07-29T04:18:46;400.3;;;-146.1;100.0
45864;BME280;31579;52.354;16.974;2022-07-29T04:19:50;383.0;;;-146.1;100.0
45864;BME280;31579;52.354;16.974;2022-07-29T04:20:54;384.4;;;-146.1;100.0
45864;BME280;31579;52.354;16.974;2022-07-29T04:21:58;384.2;;;-146.1;100.0
45864;BME280;31579;52.354;16.974;2022-07-29T04:23:00;416.1;;;-146.1;100.0
45864;BME280;31579;52.354;16.974;2022-07-29T04:24:03;407.7;;;-146.1;100.0
45864;BME280;31579;52.354;16.974;2022-07-29T04:25:07;389.6;;;-146.1;100.0
45864;BME280;31579;52.354;16.974;2022-07-29T04:26:11;385.7;;;-146.1;100.0
45864;BME280;31579;52.354;16.974;2022-07-29T04:27:15;384.1;;;-146.1;100.0
45864;BME280;31579;52.354;16.974;2022-07-29T04:28:20;383.9;;;-146.1;100.0
45864;BME280;31579;52.354;16.974;2022-07-29T04:29:24;384.0;;;-146.1;100.0
45864;BME280;31579;52.354;16.974;2022-07-29T04:30:28;384.9;;;-146.1;100.0
45864;BME280;31579;52.354;16.974;2022-07-29T04:31:32;384.9;;;-146.1;100.0
45864;BME280;31579;52.354;16.974;2022-07-29T04:32:36;384.5;;;-146.1;100.0
45864;BME280;31579;52.354;16.974;2022-07-29T04:33:40;383.6;;;-146.1;100.0
45864;BME280;31579;52.354;16.974;2022-07-29T04:34:44;382.3;;;-146.1;100.0
45864;BME280;31579;52.354;16.974;2022-07-29T04:35:48;374.6;;;-146.1;100.0
45864;BME280;31579;52.354;16.974;2022-07-29T04:36:52;372.6;;;-146.1;100.0
45864;BME280;31579;52.354;16.974;2022-07-29T04:37:56;365.8;;;-146.1;100.0
45864;BME280;31579;52.354;16.974;2022-07-29T04:39:00;360.8;;;-146.1;100.0
45864;BME280;31579;52.354;16.974;2022-07-29T04:40:05;363.4;;;-146.1;100.0
45864;BME280;31579;52.354;16.974;2022-07-29T04:41:09;359.8;;;-146.1;100.0
45864;BME280;31579;52.354;16.974;2022-07-29T04:42:13;350.5;;;-146.1;100.0
45864;BME280;31579;52.354;16.974;2022-07-29T04:43:17;348.8;;;-146.1;100.0
45864;BME280;31579;52.354;16.974;2022-07-29T04:44:21;348.4;;;-146.1;100.0
45864;BME280;31579;52.354;16.974;2022-07-29T04:45:25;349.4;;;-146.1;100.0
45864;BME280;31579;52.354;16.974;2022-07-29T04:46:29;349.7;;;-146.1;100.0
45864;BME280;31579;52.354;16.974;2022-07-29T04:47:33;344.2;;;-146.1;100.0
45864;BME280;31579;52.354;16.974;2022-07-29T04:48:37;339.7;;;-146.1;100.0
45864;BME280;31579;52.354;16.974;2022-07-29T04:49:41;338.5;;;-146.1;100.0
45864;BME280;31579;52.354;16.974;2022-07-29T04:50:46;297.1;;;-146.1;100.0
45864;BME280;31579;52.354;16.974;2022-07-29T04:51:50;331.2;;;-146.1;100.0
45864;BME280;31579;52.354;16.974;2022-07-29T04:52:54;332.2;;;-146.1;100.0
45864;BME280;31579;52.354;16.974;2022-07-29T04:53:58;330.1;;;-146.1;100.0
45864;BME280;31579;52.354;16.974;2022-07-29T04:55:00;362.9;;;-146.1;100.0
45864;BME280;31579;52.354;16.974;2022-07-29T04:56:03;346.0;;;-146.1;100.0
45864;BME280;31579;52.354;16.974;2022-07-29T04:57:07;313.9;;;-146.1;100.0
45864;BME280;31579;52.354;16.974;2022-07-29T04:58:11;306.4;;;-146.1;100.0
45864;BME280;31579;52.354;16.974;2022-07-29T04:59:15;305.8;;;-146.1;100.0
45864;BME280;31579;52.354;16.974;2022-07-29T05:00:19;299.1;;;-146.1;100.0
45864;BME280;31579;52.354;16.974;2022-07-29T05:01:23;287.9;;;-146.1;100.0
45864;BME280;31579;52.354;16.974;2022-07-29T05:02:27;281.7;;;-146.1;100.0
45864;BME280;31579;52.354;16.974;2022-07-29T05:03:31;253.0;;;-146.1;100.0
45864;BME280;31579;52.354;16.974;2022-07-29T05:04:35;216.7;;;-146.1;100.0
45864;BME280;31579;52.354;16.974;2022-07-29T05:05:40;198.1;;;-146.1;100.0
45864;BME280;31579;52.354;16.974;2022-07-29T05:06:44;184.1;;;-146.1;100.0
45864;BME280;31579;52.354;16.974;2022-07-29T05:07:48;129.2;;;-146.1;100.0
45864;BME280;31579;52.354;16.974;2022-07-29T05:08:52;77.6;;;-146.1;100.0
45864;BME280;31579;52.354;16.974;2022-07-29T05:09:56;47.6;;;-146.1;100.0
45864;BME280;31579;52.354;16.974;2022-07-29T05:11:00;-38.4;;;-146.1;100.0
45864;BME280;31579;52.354;16.974;2022-07-29T05:12:05;-63.5;;;-146.1;100.0
45864;BME280;31579;52.354;16.974;2022-07-29T05:13:09;-67.5;;;-146.1;100.0
45864;BME280;31579;52.354;16.974;2022-07-29T05:14:13;-98.2;;;-146.1;100.0
45864;BME280;31579;52.354;16.974;2022-07-29T05:15:17;-106.3;;;-146.1;100.0
45864;BME280;31579;52.354;16.974;2022-07-29T05:16:21;-125.3;;;-146.1;100.0
45864;BME280;31579;52.354;16.974;2022-07-29T05:17:25;-131.5;;;-146.1;100.0
45864;BME280;31579;52.354;16.974;2022-07-29T05:18:29;-131.3;;;-146.1;100.0
45864;BME280;31579;52.354;16.974;2022-07-29T05:19:33;-131.3;;;-146.1;100.0
45864;BME280;31579;52.354;16.974;2022-07-29T05:20:37;-128.3;;;-146.1;100.0
45864;BME280;31579;52.354;16.974;2022-07-29T05:21:41;-121.0;;;-146.1;100.0
45864;BME280;31579;52.354;16.974;2022-07-29T05:22:45;-110.1;;;-146.1;100.0
45864;BME280;31579;52.354;16.974;2022-07-29T05:23:47;-112.9;;;-146.1;100.0
45864;BME280;31579;52.354;16.974;2022-07-29T05:24:51;-86.1;;;-146.1;100.0
45864;BME280;31579;52.354;16.974;2022-07-29T05:25:55;-73.0;;;-146.1;100.0
45864;BME280;31579;52.354;16.974;2022-07-29T05:26:59;-72.5;;;-146.1;100.0
45864;BME280;31579;52.354;16.974;2022-07-29T05:28:03;-61.5;;;-146.1;100.0
45864;BME280;31579;52.354;16.974;2022-07-29T05:29:07;-41.2;;;-146.1;100.0
45864;BME280;31579;52.354;16.974;2022-07-29T05:30:11;-42.5;;;-146.1;100.0
45864;BME280;31579;52.354;16.974;2022-07-29T05:31:15;-27.2;;;-146.1;100.0
45864;BME280;31579;52.354;16.974;2022-07-29T05:32:19;-11.5;;;-146.1;100.0
45864;BME280;31579;52.354;16.974;2022-07-29T05:33:23;33.7;;;-146.1;100.0
45864;BME280;31579;52.354;16.974;2022-07-29T05:34:27;62.5;;;-146.1;100.0
45864;BME280;31579;52.354;16.974;2022-07-29T05:35:31;78.0;;;-146.1;100.0
45864;BME280;31579;52.354;16.974;2022-07-29T05:36:35;95.2;;;-146.1;100.0
45864;BME280;31579;52.354;16.974;2022-07-29T05:37:39;83.8;;;-146.1;100.0
45864;BME280;31579;52.354;16.974;2022-07-29T05:38:43;83.8;;;-146.1;100.0
45864;BME280;31579;52.354;16.974;2022-07-29T05:39:45;42.4;;;-146.1;100.0
45864;BME280;31579;52.354;16.974;2022-07-29T05:40:47;71.0;;;-146.1;100.0
45864;BME280;31579;52.354;16.974;2022-07-29T05:41:51;221.2;;;-146.1;100.0
45864;BME280;31579;52.354;16.974;2022-07-29T05:42:55;380.5;;;-146.1;100.0
45864;BME280;31579;52.354;16.974;2022-07-29T05:43:59;503.9;;;-146.1;100.0
45864;BME280;31579;52.354;16.974;2022-07-29T05:45:03;779.2;;;-146.1;100.0
45864;BME280;31579;52.354;16.974;2022-07-29T05:46:07;791.9;;;-146.1;100.0
45864;BME280;31579;52.354;16.974;2022-07-29T05:47:11;768.1;;;-146.1;100.0
45864;BME280;31579;52.354;16.974;2022-07-29T05:48:15;741.6;;;-146.1;100.0
45864;BME280;31579;52.354;16.974;2022-07-29T05:49:19;817.0;;;-146.1;100.0
45864;BME280;31579;52.354;16.974;2022-07-29T05:50:23;814.4;;;-146.1;100.0
45864;BME280;31579;52.354;16.974;2022-07-29T05:51:27;816.4;;;-146.1;100.0
45864;BME280;31579;52.354;16.974;2022-07-29T05:52:31;815.7;;;-146.1;100.0
45864;BME280;31579;52.354;16.974;2022-07-29T05:53:35;812.3;;;-146.1;100.0
45864;BME280;31579;52.354;16.974;2022-07-29T05:54:39;782.6;;;-146.1;100.0
45864;BME280;31579;52.354;16.974;2022-07-29T05:55:43;769.3;;;-146.1;100.0
45864;BME280;31579;52.354;16.974;2022-07-29T05:56:45;767.7;;;-146.1;100.0
45864;BME280;31579;52.354;16.974;2022-07-29T05:57:51;791.6;;;-146.1;100.0
45864;BME280;31579;52.354;16.974;2022-07-29T05:58:55;800.6;;;-146.1;100.0
45864;BME280;31579;52.354;16.974;2022-07-29T05:59:59;818.2;;;-146.1;100.0
45864;BME280;31579;52.354;16.974;2022-07-29T06:01:03;826.8;;;-146.1;100.0
45864;BME280;31579;52.354;16.974;2022-07-29T06:02:07;813.1;;;-146.1;100.0